sensor_id;sensor_type;location;lat;lon;timestamp;P1;durP1;ratioP1;P2;durP2;ratioP2
52790;SDS011;41253;46.856;-71.574;2022-07-29T00:01:01;4.35;;;3.53;;
52790;SDS011;41253;46.856;-71.574;2022-07-29T00:03:27;3.50;;;2.35;;
52790;SDS011;41253;46.856;-71.574;2022-07-29T00:05:54;2.25;;;1.50;;
52790;SDS011;41253;46.856;-71.574;2022-07-29T00:08:21;2.95;;;2.38;;
52790;SDS011;41253;46.856;-71.574;2022-07-29T00:10:47;3.47;;;3.17;;
52790;SDS011;41253;46.856;-71.574;2022-07-29T00:13:13;1.95;;;1.70;;
52790;SDS011;41253;46.856;-71.574;2022-07-29T00:15:40;2.25;;;2.05;;
52790;SDS011;41253;46.856;-71.574;2022-07-29T00:18:07;2.90;;;1.65;;
52790;SDS011;41253;46.856;-71.574;2022-07-29T00:20:33;3.08;;;2.10;;
52790;SDS011;41253;46.856;-71.574;2022-07-29T00:23:00;4.40;;;1.83;;
52790;SDS011;41253;46.856;-71.574;2022-07-29T00:25:26;3.05;;;1.20;;
52790;SDS011;41253;46.856;-71.574;2022-07-29T00:27:53;1.42;;;1.33;;
52790;SDS011;41253;46.856;-71.574;2022-07-29T00:30:19;3.55;;;2.00;;
52790;SDS011;41253;46.856;-71.574;2022-07-29T00:32:46;7.28;;;4.30;;
52790;SDS011;41253;46.856;-71.574;2022-07-29T00:35:12;2.08;;;1.80;;
52790;SDS011;41253;46.856;-71.574;2022-07-29T00:37:57;1.88;;;1.60;;
52790;SDS011;41253;46.856;-71.574;2022-07-29T00:40:25;1.80;;;1.70;;
52790;SDS011;41253;46.856;-71.574;2022-07-29T00:42:55;1.70;;;1.60;;
52790;SDS011;41253;46.856;-71.574;2022-07-29T00:45:24;3.50;;;1.77;;
52790;SDS011;41253;46.856;-71.574;2022-07-29T00:47:50;3.13;;;1.70;;
52790;SDS011;41253;46.856;-71.574;2022-07-29T00:50:17;3.90;;;2.47;;
52790;SDS011;41253;46.856;-71.574;2022-07-29T00:52:43;4.32;;;2.58;;
52790;SDS011;41253;46.856;-71.574;2022-07-29T00:55:11;2.10;;;1.90;;
52790;SDS011;41253;46.856;-71.574;2022-07-29T00:57:40;2.70;;;2.10;;
52790;SDS011;41253;46.856;-71.574;2022-07-29T01:00:09;2.90;;;2.20;;
52790;SDS011;41253;46.856;-71.574;2022-07-29T01:02:43;3.75;;;2.28;;
52790;SDS011;41253;46.856;-71.574;2022-07-29T01:05:11;5.03;;;2.95;;
52790;SDS011;41253;46.856;-71.574;2022-07-29T01:07:38;2.67;;;2.25;;
52790;SDS011;41253;46.856;-71.574;2022-07-29T01:10:06;2.00;;;1.90;;
52790;SDS011;41253;46.856;-71.574;2022-07-29T01:12:35;2.28;;;1.90;;
52790;SDS011;41253;46.856;-71.574;2022-07-29T01:15:04;1.70;;;1.48;;
52790;SDS011;41253;46.856;-71.574;2022-07-29T01:22:50;3.72;;;2.40;;
52790;SDS011;41253;46.856;-71.574;2022-07-29T01:31:38;2.50;;;2.30;;
52790;SDS011;41253;46.856;-71.574;2022-07-29T01:34:11;3.80;;;1.80;;
52790;SDS011;41253;46.856;-71.574;2022-07-29T01:36:43;3.67;;;1.80;;
52790;SDS011;41253;46.856;-71.574;2022-07-29T01:39:27;4.35;;;2.40;;
52790;SDS011;41253;46.856;-71.574;2022-07-29T01:41:59;3.08;;;2.05;;
52790;SDS011;41253;46.856;-71.574;2022-07-29T01:44:41;2.45;;;2.08;;
52790;SDS011;41253;46.856;-71.574;2022-07-29T01:47:19;1.70;;;1.48;;
52790;SDS011;41253;46.856;-71.574;2022-07-29T01:49:52;3.15;;;2.05;;
52790;SDS011;41253;46.856;-71.574;2022-07-29T01:52:33;2.22;;;2.03;;
52790;SDS011;41253;46.856;-71.574;2022-07-29T01:55:09;1.98;;;1.83;;
52790;SDS011;41253;46.856;-71.574;2022-07-29T01:57:40;3.75;;;2.00;;
52790;SDS011;41253;46.856;-71.574;2022-07-29T02:00:10;2.88;;;2.58;;
52790;SDS011;41253;46.856;-71.574;2022-07-29T02:02:37;3.50;;;2.20;;
52790;SDS011;41253;46.856;-71.574;2022-07-29T02:05:07;3.45;;;1.80;;
52790;SDS011;41253;46.856;-71.574;2022-07-29T02:07:37;3.33;;;2.30;;
52790;SDS011;41253;46.856;-71.574;2022-07-29T02:10:07;2.42;;;1.95;;
52790;SDS011;41253;46.856;-71.574;2022-07-29T02:12:36;3.00;;;2.67;;
52790;SDS011;41253;46.856;-71.574;2022-07-29T02:15:04;3.67;;;2.47;;
52790;SDS011;41253;46.856;-71.574;2022-07-29T02:17:56;2.67;;;2.47;;
52790;SDS011;41253;46.856;-71.574;2022-07-29T02:20:22;4.05;;;3.17;;
52790;SDS011;41253;46.856;-71.574;2022-07-29T02:22:50;3.25;;;2.95;;
52790;SDS011;41253;46.856;-71.574;2022-07-29T02:25:19;5.85;;;3.10;;
52790;SDS011;41253;46.856;-71.574;2022-07-29T02:27:48;6.63;;;3.00;;
52790;SDS011;41253;46.856;-71.574;2022-07-29T02:30:17;3.92;;;2.80;;
52790;SDS011;41253;46.856;-71.574;2022-07-29T02:32:44;3.35;;;2.67;;
52790;SDS011;41253;46.856;-71.574;2022-07-29T02:35:14;4.88;;;2.55;;
52790;SDS011;41253;46.856;-71.574;2022-07-29T02:37:42;3.15;;;2.58;;
52790;SDS011;41253;46.856;-71.574;2022-07-29T02:40:11;3.63;;;2.67;;
52790;SDS011;41253;46.856;-71.574;2022-07-29T02:42:41;6.10;;;3.47;;
52790;SDS011;41253;46.856;-71.574;2022-07-29T02:45:09;4.22;;;3.88;;
52790;SDS011;41253;46.856;-71.574;2022-07-29T02:47:39;5.65;;;3.42;;
52790;SDS011;41253;46.856;-71.574;2022-07-29T02:50:12;4.60;;;3.80;;
52790;SDS011;41253;46.856;-71.574;2022-07-29T02:52:45;7.45;;;4.15;;
52790;SDS011;41253;46.856;-71.574;2022-07-29T02:58:00;4.70;;;3.80;;
52790;SDS011;41253;46.856;-71.574;2022-07-29T03:00:30;5.28;;;4.78;;
52790;SDS011;41253;46.856;-71.574;2022-07-29T03:03:00;5.43;;;4.90;;
52790;SDS011;41253;46.856;-71.574;2022-07-29T03:05:29;6.65;;;4.50;;
52790;SDS011;41253;46.856;-71.574;2022-07-29T03:07:58;6.35;;;5.45;;
52790;SDS011;41253;46.856;-71.574;2022-07-29T03:10:28;7.70;;;6.28;;
52790;SDS011;41253;46.856;-71.574;2022-07-29T03:12:55;8.75;;;6.97;;
52790;SDS011;41253;46.856;-71.574;2022-07-29T03:15:23;8.52;;;7.63;;
52790;SDS011;41253;46.856;-71.574;2022-07-29T03:17:51;7.97;;;7.00;;
52790;SDS011;41253;46.856;-71.574;2022-07-29T03:20:20;8.85;;;7.72;;
52790;SDS011;41253;46.856;-71.574;2022-07-29T03:22:47;9.00;;;8.13;;
52790;SDS011;41253;46.856;-71.574;2022-07-29T03:25:15;10.13;;;6.72;;
52790;SDS011;41253;46.856;-71.574;2022-07-29T03:27:43;8.05;;;6.05;;
52790;SDS011;41253;46.856;-71.574;2022-07-29T03:30:10;6.65;;;6.05;;
52790;SDS011;41253;46.856;-71.574;2022-07-29T03:32:37;8.55;;;7.00;;
52790;SDS011;41253;46.856;-71.574;2022-07-29T03:35:05;7.40;;;6.65;;
52790;SDS011;41253;46.856;-71.574;2022-07-29T03:37:32;8.07;;;7.35;;
52790;SDS011;41253;46.856;-71.574;2022-07-29T03:39:59;8.57;;;7.60;;
52790;SDS011;41253;46.856;-71.574;2022-07-29T03:42:30;10.95;;;7.60;;
52790;SDS011;41253;46.856;-71.574;2022-07-29T03:44:58;6.75;;;5.60;;
52790;SDS011;41253;46.856;-71.574;2022-07-29T03:47:32;8.23;;;6.80;;
52790;SDS011;41253;46.856;-71.574;2022-07-29T03:50:02;12.75;;;7.18;;
52790;SDS011;41253;46.856;-71.574;2022-07-29T03:52:32;10.18;;;6.82;;
52790;SDS011;41253;46.856;-71.574;2022-07-29T03:54:59;7.45;;;6.47;;
52790;SDS011;41253;46.856;-71.574;2022-07-29T03:57:27;10.32;;;7.10;;
52790;SDS011;41253;46.856;-71.574;2022-07-29T03:59:56;6.90;;;6.20;;
52790;SDS011;41253;46.856;-71.574;2022-07-29T04:02:23;6.47;;;5.93;;
52790;SDS011;41253;46.856;-71.574;2022-07-29T04:04:51;11.45;;;5.97;;
52790;SDS011;41253;46.856;-71.574;2022-07-29T04:07:17;9.23;;;6.55;;
52790;SDS011;41253;46.856;-71.574;2022-07-29T04:09:44;6.10;;;5.13;;
52790;SDS011;41253;46.856;-71.574;2022-07-29T04:12:10;9.23;;;6.43;;
52790;SDS011;41253;46.856;-71.574;2022-07-29T04:14:37;8.07;;;6.60;;
52790;SDS011;41253;46.856;-71.574;2022-07-29T04:17:03;5.60;;;4.60;;
52790;SDS011;41253;46.856;-71.574;2022-07-29T04:19:31;10.88;;;7.60;;
52790;SDS011;41253;46.856;-71.574;2022-07-29T04:21:58;9.60;;;6.32;;
52790;SDS011;41253;46.856;-71.574;2022-07-29T04:24:25;8.05;;;5.47;;
52790;SDS011;41253;46.856;-71.574;2022-07-29T04:26:52;7.78;;;6.97;;
52790;SDS011;41253;46.856;-71.574;2022-07-29T04:29:18;9.50;;;7.80;;
52790;SDS011;41253;46.856;-71.574;2022-07-29T04:31:45;10.23;;;7.45;;
52790;SDS011;41253;46.856;-71.574;2022-07-29T04:34:11;7.35;;;6.53;;
52790;SDS011;41253;46.856;-71.574;2022-07-29T04:36:38;9.35;;;8.43;;
52790;SDS011;41253;46.856;-71.574;2022-07-29T04:39:05;15.43;;;10.07;;
52790;SDS011;41253;46.856;-71.574;2022-07-29T04:41:32;9.77;;;8.18;;
52790;SDS011;41253;46.856;-71.574;2022-07-29T04:43:58;8.32;;;7.43;;
52790;SDS011;41253;46.856;-71.574;2022-07-29T04:46:30;12.25;;;9.18;;
52790;SDS011;41253;46.856;-71.574;2022-07-29T04:48:57;15.63;;;9.50;;
52790;SDS011;41253;46.856;-71.574;2022-07-29T04:51:24;10.73;;;7.93;;
52790;SDS011;41253;46.856;-71.574;2022-07-29T04:53:50;12.25;;;6.47;;
52790;SDS011;41253;46.856;-71.574;2022-07-29T04:56:16;12.48;;;7.22;;
52790;SDS011;41253;46.856;-71.574;2022-07-29T04:58:43;13.40;;;7.10;;
52790;SDS011;41253;46.856;-71.574;2022-07-29T05:01:10;10.77;;;8.18;;
52790;SDS011;41253;46.856;-71.574;2022-07-29T05:03:36;10.30;;;6.95;;
52790;SDS011;41253;46.856;-71.574;2022-07-29T05:06:02;15.18;;;8.95;;
52790;SDS011;41253;46.856;-71.574;2022-07-29T05:08:29;9.93;;;7.80;;
52790;SDS011;41253;46.856;-71.574;2022-07-29T05:10:55;8.68;;;7.70;;
52790;SDS011;41253;46.856;-71.574;2022-07-29T05:13:22;11.80;;;7.18;;
52790;SDS011;41253;46.856;-71.574;2022-07-29T05:15:48;10.85;;;6.40;;
52790;SDS011;41253;46.856;-71.574;2022-07-29T05:18:15;15.35;;;9.05;;
52790;SDS011;41253;46.856;-71.574;2022-07-29T05:20:41;13.60;;;9.43;;
52790;SDS011;41253;46.856;-71.574;2022-07-29T05:23:08;15.65;;;10.73;;
52790;SDS011;41253;46.856;-71.574;2022-07-29T05:25:34;16.10;;;9.50;;
52790;SDS011;41253;46.856;-71.574;2022-07-29T05:28:01;13.30;;;8.00;;
52790;SDS011;41253;46.856;-71.574;2022-07-29T05:30:27;8.30;;;7.10;;
52790;SDS011;41253;46.856;-71.574;2022-07-29T05:32:54;11.43;;;8.95;;
52790;SDS011;41253;46.856;-71.574;2022-07-29T05:35:20;14.68;;;9.75;;
52790;SDS011;41253;46.856;-71.574;2022-07-29T05:37:47;11.55;;;8.18;;
52790;SDS011;41253;46.856;-71.574;2022-07-29T05:40:13;15.85;;;10.60;;
52790;SDS011;41253;46.856;-71.574;2022-07-29T05:42:40;16.23;;;9.30;;
52790;SDS011;41253;46.856;-71.574;2022-07-29T05:45:06;14.32;;;9.73;;
52790;SDS011;41253;46.856;-71.574;2022-07-29T05:47:33;13.20;;;8.27;;
52790;SDS011;41253;46.856;-71.574;2022-07-29T05:50:00;11.00;;;7.68;;
52790;SDS011;41253;46.856;-71.574;2022-07-29T05:52:26;11.48;;;7.60;;
52790;SDS011;41253;46.856;-71.574;2022-07-29T05:54:53;9.07;;;7.53;;
52790;SDS011;41253;46.856;-71.574;2022-07-29T05:57:21;12.65;;;8.77;;
52790;SDS011;41253;46.856;-71.574;2022-07-29T05:59:49;9.13;;;8.05;;
52790;SDS011;41253;46.856;-71.574;2022-07-29T06:02:16;7.60;;;6.80;;
52790;SDS011;41253;46.856;-71.574;2022-07-29T06:04:43;12.35;;;9.25;;
52790;SDS011;41253;46.856;-71.574;2022-07-29T06:07:09;9.30;;;7.35;;
52790;SDS011;41253;46.856;-71.574;2022-07-29T06:09:36;9.68;;;6.85;;
52790;SDS011;41253;46.856;-71.574;2022-07-29T06:12:03;9.05;;;7.50;;
52790;SDS011;41253;46.856;-71.574;2022-07-29T06:14:30;9.30;;;7.63;;
52790;SDS011;41253;46.856;-71.574;2022-07-29T06:16:57;10.00;;;8.30;;
52790;SDS011;41253;46.856;-71.574;2022-07-29T06:19:23;13.98;;;8.13;;
52790;SDS011;41253;46.856;-71.574;2022-07-29T06:21:49;8.98;;;7.70;;
52790;SDS011;41253;46.856;-71.574;2022-07-29T06:24:16;12.43;;;8.18;;
52790;SDS011;41253;46.856;-71.574;2022-07-29T06:26:43;11.43;;;8.90;;
52790;SDS011;41253;46.856;-71.574;2022-07-29T06:29:10;13.65;;;9.57;;
52790;SDS011;41253;46.856;-71.574;2022-07-29T06:31:36;13.05;;;8.80;;
52790;SDS011;41253;46.856;-71.574;2022-07-29T06:34:03;10.02;;;7.68;;
52790;SDS011;41253;46.856;-71.574;2022-07-29T06:36:30;14.93;;;10.18;;
52790;SDS011;41253;46.856;-71.574;2022-07-29T06:38:59;14.63;;;10.38;;
52790;SDS011;41253;46.856;-71.574;2022-07-29T06:41:26;13.60;;;9.30;;
52790;SDS011;41253;46.856;-71.574;2022-07-29T06:43:52;16.80;;;11.30;;
52790;SDS011;41253;46.856;-71.574;2022-07-29T06:46:19;14.73;;;10.98;;
52790;SDS011;41253;46.856;-71.574;2022-07-29T06:48:46;14.60;;;10.32;;
52790;SDS011;41253;46.856;-71.574;2022-07-29T06:51:13;17.85;;;10.85;;
52790;SDS011;41253;46.856;-71.574;2022-07-29T06:53:40;20.35;;;12.60;;
52790;SDS011;41253;46.856;-71.574;2022-07-29T06:56:06;12.65;;;9.25;;
52790;SDS011;41253;46.856;-71.574;2022-07-29T06:58:38;17.27;;;11.10;;
52790;SDS011;41253;46.856;-71.574;2022-07-29T07:01:04;17.75;;;11.55;;
52790;SDS011;41253;46.856;-71.574;2022-07-29T07:03:32;18.75;;;12.50;;
52790;SDS011;41253;46.856;-71.574;2022-07-29T07:05:59;28.95;;;15.82;;
52790;SDS011;41253;46.856;-71.574;2022-07-29T07:08:26;18.55;;;12.35;;
52790;SDS011;41253;46.856;-71.574;2022-07-29T07:10:52;27.55;;;16.05;;
52790;SDS011;41253;46.856;-71.574;2022-07-29T07:13:20;17.52;;;14.07;;
52790;SDS011;41253;46.856;-71.574;2022-07-29T07:15:47;29.13;;;18.17;;
52790;SDS011;41253;46.856;-71.574;2022-07-29T07:18:14;19.25;;;14.05;;
52790;SDS011;41253;46.856;-71.574;2022-07-29T07:20:41;26.73;;;17.00;;
52790;SDS011;41253;46.856;-71.574;2022-07-29T07:23:08;30.13;;;17.15;;
52790;SDS011;41253;46.856;-71.574;2022-07-29T07:25:34;29.65;;;18.75;;
52790;SDS011;41253;46.856;-71.574;2022-07-29T07:28:01;31.17;;;19.05;;
52790;SDS011;41253;46.856;-71.574;2022-07-29T07:30:28;23.23;;;15.57;;
52790;SDS011;41253;46.856;-71.574;2022-07-29T07:32:54;30.92;;;18.65;;
52790;SDS011;41253;46.856;-71.574;2022-07-29T07:35:21;27.13;;;17.58;;
52790;SDS011;41253;46.856;-71.574;2022-07-29T07:37:48;21.80;;;15.10;;
52790;SDS011;41253;46.856;-71.574;2022-07-29T07:40:14;22.50;;;16.08;;
52790;SDS011;41253;46.856;-71.574;2022-07-29T07:42:41;19.00;;;14.35;;
52790;SDS011;41253;46.856;-71.574;2022-07-29T07:45:07;28.65;;;18.67;;
52790;SDS011;41253;46.856;-71.574;2022-07-29T07:47:35;32.50;;;20.38;;
52790;SDS011;41253;46.856;-71.574;2022-07-29T07:50:03;17.15;;;13.90;;
52790;SDS011;41253;46.856;-71.574;2022-07-29T07:52:31;29.25;;;18.58;;
52790;SDS011;41253;46.856;-71.574;2022-07-29T07:54:58;28.05;;;19.20;;
52790;SDS011;41253;46.856;-71.574;2022-07-29T07:57:25;24.83;;;16.30;;
52790;SDS011;41253;46.856;-71.574;2022-07-29T07:59:51;24.27;;;16.27;;
52790;SDS011;41253;46.856;-71.574;2022-07-29T08:02:18;30.42;;;19.02;;
52790;SDS011;41253;46.856;-71.574;2022-07-29T08:04:44;33.00;;;18.88;;
52790;SDS011;41253;46.856;-71.574;2022-07-29T08:07:11;29.92;;;18.95;;
52790;SDS011;41253;46.856;-71.574;2022-07-29T08:09:39;27.13;;;18.67;;
52790;SDS011;41253;46.856;-71.574;2022-07-29T08:12:06;25.25;;;17.70;;
52790;SDS011;41253;46.856;-71.574;2022-07-29T08:14:33;32.25;;;19.30;;
52790;SDS011;41253;46.856;-71.574;2022-07-29T08:16:59;27.17;;;17.98;;
52790;SDS011;41253;46.856;-71.574;2022-07-29T08:19:26;27.80;;;17.42;;
52790;SDS011;41253;46.856;-71.574;2022-07-29T08:21:52;32.20;;;19.52;;
52790;SDS011;41253;46.856;-71.574;2022-07-29T08:24:19;32.35;;;21.00;;
52790;SDS011;41253;46.856;-71.574;2022-07-29T08:27:05;21.00;;;16.17;;
52790;SDS011;41253;46.856;-71.574;2022-07-29T08:29:31;30.73;;;19.95;;
52790;SDS011;41253;46.856;-71.574;2022-07-29T08:31:58;19.15;;;14.25;;
52790;SDS011;41253;46.856;-71.574;2022-07-29T08:34:24;24.80;;;18.65;;
52790;SDS011;41253;46.856;-71.574;2022-07-29T08:36:51;24.40;;;18.17;;
52790;SDS011;41253;46.856;-71.574;2022-07-29T08:39:17;32.58;;;21.23;;
52790;SDS011;41253;46.856;-71.574;2022-07-29T08:41:44;21.75;;;15.13;;
52790;SDS011;41253;46.856;-71.574;2022-07-29T08:44:10;25.67;;;19.02;;
52790;SDS011;41253;46.856;-71.574;2022-07-29T08:46:37;25.05;;;17.88;;
52790;SDS011;41253;46.856;-71.574;2022-07-29T08:49:06;29.08;;;19.35;;
52790;SDS011;41253;46.856;-71.574;2022-07-29T08:51:33;23.50;;;16.52;;
52790;SDS011;41253;46.856;-71.574;2022-07-29T08:54:02;29.58;;;18.42;;
52790;SDS011;41253;46.856;-71.574;2022-07-29T08:56:28;29.38;;;19.83;;
52790;SDS011;41253;46.856;-71.574;2022-07-29T08:58:56;21.65;;;17.25;;
52790;SDS011;41253;46.856;-71.574;2022-07-29T09:01:25;19.25;;;16.35;;
52790;SDS011;41253;46.856;-71.574;2022-07-29T09:03:56;27.73;;;18.35;;
52790;SDS011;41253;46.856;-71.574;2022-07-29T09:06:24;24.55;;;18.00;;
52790;SDS011;41253;46.856;-71.574;2022-07-29T09:08:54;24.88;;;17.60;;
52790;SDS011;41253;46.856;-71.574;2022-07-29T09:11:25;25.10;;;18.67;;
52790;SDS011;41253;46.856;-71.574;2022-07-29T09:13:51;24.90;;;17.23;;
52790;SDS011;41253;46.856;-71.574;2022-07-29T09:16:18;27.17;;;18.58;;
52790;SDS011;41253;46.856;-71.574;2022-07-29T09:18:45;27.17;;;19.42;;
52790;SDS011;41253;46.856;-71.574;2022-07-29T09:21:12;25.42;;;17.70;;
52790;SDS011;41253;46.856;-71.574;2022-07-29T09:24:04;23.70;;;16.85;;
52790;SDS011;41253;46.856;-71.574;2022-07-29T09:26:40;21.50;;;15.98;;
52790;SDS011;41253;46.856;-71.574;2022-07-29T09:31:40;23.70;;;16.65;;
52790;SDS011;41253;46.856;-71.574;2022-07-29T09:34:09;18.23;;;14.55;;
52790;SDS011;41253;46.856;-71.574;2022-07-29T09:36:39;15.15;;;12.52;;
52790;SDS011;41253;46.856;-71.574;2022-07-29T09:39:07;20.33;;;15.70;;
52790;SDS011;41253;46.856;-71.574;2022-07-29T09:41:44;16.70;;;12.80;;
52790;SDS011;41253;46.856;-71.574;2022-07-29T09:44:18;16.98;;;13.73;;
52790;SDS011;41253;46.856;-71.574;2022-07-29T09:46:58;18.60;;;14.98;;
52790;SDS011;41253;46.856;-71.574;2022-07-29T09:49:33;17.08;;;13.68;;
52790;SDS011;41253;46.856;-71.574;2022-07-29T09:54:31;24.55;;;17.50;;
52790;SDS011;41253;46.856;-71.574;2022-07-29T09:57:05;20.08;;;14.75;;
52790;SDS011;41253;46.856;-71.574;2022-07-29T09:59:34;18.25;;;13.57;;
52790;SDS011;41253;46.856;-71.574;2022-07-29T10:02:01;14.60;;;12.02;;
52790;SDS011;41253;46.856;-71.574;2022-07-29T10:04:40;21.83;;;15.23;;
52790;SDS011;41253;46.856;-71.574;2022-07-29T10:07:07;23.02;;;15.55;;
52790;SDS011;41253;46.856;-71.574;2022-07-29T10:09:35;27.00;;;17.88;;
52790;SDS011;41253;46.856;-71.574;2022-07-29T10:12:06;18.85;;;14.90;;
52790;SDS011;41253;46.856;-71.574;2022-07-29T10:14:34;14.60;;;12.13;;
52790;SDS011;41253;46.856;-71.574;2022-07-29T10:17:03;15.85;;;12.93;;
52790;SDS011;41253;46.856;-71.574;2022-07-29T10:19:31;19.05;;;13.55;;
52790;SDS011;41253;46.856;-71.574;2022-07-29T10:21:59;18.52;;;14.88;;
52790;SDS011;41253;46.856;-71.574;2022-07-29T10:24:28;15.18;;;13.52;;
52790;SDS011;41253;46.856;-71.574;2022-07-29T10:26:56;23.98;;;16.83;;
52790;SDS011;41253;46.856;-71.574;2022-07-29T10:29:24;13.98;;;12.57;;
52790;SDS011;41253;46.856;-71.574;2022-07-29T10:40:34;19.63;;;14.82;;
52790;SDS011;41253;46.856;-71.574;2022-07-29T10:43:26;15.82;;;12.35;;
52790;SDS011;41253;46.856;-71.574;2022-07-29T10:46:02;20.52;;;14.68;;
52790;SDS011;41253;46.856;-71.574;2022-07-29T10:48:29;14.57;;;11.10;;
52790;SDS011;41253;46.856;-71.574;2022-07-29T10:53:47;16.38;;;11.73;;
52790;SDS011;41253;46.856;-71.574;2022-07-29T10:56:28;13.85;;;10.23;;
52790;SDS011;41253;46.856;-71.574;2022-07-29T11:01:43;13.45;;;11.35;;
52790;SDS011;41253;46.856;-71.574;2022-07-29T11:04:10;12.63;;;11.27;;
52790;SDS011;41253;46.856;-71.574;2022-07-29T11:09:33;10.52;;;9.10;;
52790;SDS011;41253;46.856;-71.574;2022-07-29T11:11:59;14.00;;;10.00;;
52790;SDS011;41253;46.856;-71.574;2022-07-29T11:17:18;11.85;;;10.45;;
52790;SDS011;41253;46.856;-71.574;2022-07-29T11:19:44;14.07;;;11.15;;
52790;SDS011;41253;46.856;-71.574;2022-07-29T11:22:11;12.35;;;10.88;;
52790;SDS011;41253;46.856;-71.574;2022-07-29T11:27:42;14.40;;;11.75;;
52790;SDS011;41253;46.856;-71.574;2022-07-29T11:30:12;20.10;;;14.23;;
52790;SDS011;41253;46.856;-71.574;2022-07-29T11:32:42;17.58;;;13.38;;
52790;SDS011;41253;46.856;-71.574;2022-07-29T11:35:19;23.27;;;14.68;;
52790;SDS011;41253;46.856;-71.574;2022-07-29T11:43:50;15.52;;;12.75;;
52790;SDS011;41253;46.856;-71.574;2022-07-29T11:49:21;17.67;;;15.07;;
52790;SDS011;41253;46.856;-71.574;2022-07-29T11:51:55;14.55;;;11.63;;
52790;SDS011;41253;46.856;-71.574;2022-07-29T11:54:26;18.90;;;15.90;;
52790;SDS011;41253;46.856;-71.574;2022-07-29T11:56:59;19.02;;;14.82;;
52790;SDS011;41253;46.856;-71.574;2022-07-29T11:59:26;18.27;;;16.35;;
52790;SDS011;41253;46.856;-71.574;2022-07-29T12:01:53;18.55;;;14.25;;
52790;SDS011;41253;46.856;-71.574;2022-07-29T12:04:20;18.73;;;16.73;;
52790;SDS011;41253;46.856;-71.574;2022-07-29T12:06:49;21.08;;;16.23;;
52790;SDS011;41253;46.856;-71.574;2022-07-29T12:09:17;16.38;;;14.65;;
52790;SDS011;41253;46.856;-71.574;2022-07-29T12:11:45;17.48;;;15.45;;
52790;SDS011;41253;46.856;-71.574;2022-07-29T12:14:30;19.77;;;17.15;;
52790;SDS011;41253;46.856;-71.574;2022-07-29T12:16:59;16.00;;;14.40;;
52790;SDS011;41253;46.856;-71.574;2022-07-29T12:19:26;19.27;;;14.52;;
52790;SDS011;41253;46.856;-71.574;2022-07-29T12:21:53;17.02;;;15.23;;
52790;SDS011;41253;46.856;-71.574;2022-07-29T12:24:23;16.98;;;14.07;;
52790;SDS011;41253;46.856;-71.574;2022-07-29T12:26:54;16.10;;;14.40;;
52790;SDS011;41253;46.856;-71.574;2022-07-29T12:29:25;18.42;;;14.02;;
52790;SDS011;41253;46.856;-71.574;2022-07-29T12:31:55;19.02;;;13.93;;
52790;SDS011;41253;46.856;-71.574;2022-07-29T12:34:23;15.25;;;12.93;;
52790;SDS011;41253;46.856;-71.574;2022-07-29T12:36:52;15.50;;;12.05;;
52790;SDS011;41253;46.856;-71.574;2022-07-29T12:39:18;15.88;;;11.38;;
52790;SDS011;41253;46.856;-71.574;2022-07-29T12:41:45;17.48;;;13.77;;
52790;SDS011;41253;46.856;-71.574;2022-07-29T12:44:12;11.57;;;8.57;;
52790;SDS011;41253;46.856;-71.574;2022-07-29T12:46:38;14.02;;;9.50;;
52790;SDS011;41253;46.856;-71.574;2022-07-29T12:49:05;16.88;;;11.35;;
52790;SDS011;41253;46.856;-71.574;2022-07-29T12:51:32;13.45;;;10.30;;
52790;SDS011;41253;46.856;-71.574;2022-07-29T12:56:39;10.45;;;8.05;;
52790;SDS011;41253;46.856;-71.574;2022-07-29T13:01:49;13.75;;;10.00;;
52790;SDS011;41253;46.856;-71.574;2022-07-29T13:04:54;11.40;;;9.30;;
52790;SDS011;41253;46.856;-71.574;2022-07-29T13:07:23;13.88;;;10.23;;
52790;SDS011;41253;46.856;-71.574;2022-07-29T13:09:52;13.10;;;9.50;;
52790;SDS011;41253;46.856;-71.574;2022-07-29T13:12:19;12.85;;;9.25;;
52790;SDS011;41253;46.856;-71.574;2022-07-29T13:14:47;14.13;;;10.07;;
52790;SDS011;41253;46.856;-71.574;2022-07-29T13:17:17;12.38;;;9.48;;
52790;SDS011;41253;46.856;-71.574;2022-07-29T13:20:04;13.95;;;9.50;;
52790;SDS011;41253;46.856;-71.574;2022-07-29T13:22:34;11.82;;;8.70;;
52790;SDS011;41253;46.856;-71.574;2022-07-29T13:25:01;11.95;;;7.30;;
52790;SDS011;41253;46.856;-71.574;2022-07-29T13:27:28;9.57;;;7.07;;
52790;SDS011;41253;46.856;-71.574;2022-07-29T13:30:03;8.15;;;6.93;;
52790;SDS011;41253;46.856;-71.574;2022-07-29T13:32:32;8.82;;;7.88;;
52790;SDS011;41253;46.856;-71.574;2022-07-29T13:35:04;10.27;;;8.43;;
52790;SDS011;41253;46.856;-71.574;2022-07-29T13:37:33;9.98;;;7.53;;
52790;SDS011;41253;46.856;-71.574;2022-07-29T13:40:04;11.63;;;8.18;;
52790;SDS011;41253;46.856;-71.574;2022-07-29T13:42:32;8.70;;;6.75;;
52790;SDS011;41253;46.856;-71.574;2022-07-29T13:44:58;8.10;;;5.88;;
52790;SDS011;41253;46.856;-71.574;2022-07-29T13:47:25;6.72;;;5.93;;
52790;SDS011;41253;46.856;-71.574;2022-07-29T13:49:52;6.20;;;5.28;;
52790;SDS011;41253;46.856;-71.574;2022-07-29T13:52:19;5.95;;;5.30;;
52790;SDS011;41253;46.856;-71.574;2022-07-29T13:54:46;6.80;;;5.60;;
52790;SDS011;41253;46.856;-71.574;2022-07-29T13:57:13;5.88;;;4.75;;
52790;SDS011;41253;46.856;-71.574;2022-07-29T13:59:40;5.68;;;4.43;;
52790;SDS011;41253;46.856;-71.574;2022-07-29T14:02:07;9.73;;;5.95;;
52790;SDS011;41253;46.856;-71.574;2022-07-29T14:04:35;5.60;;;5.07;;
52790;SDS011;41253;46.856;-71.574;2022-07-29T14:07:02;6.40;;;5.35;;
52790;SDS011;41253;46.856;-71.574;2022-07-29T14:09:28;6.45;;;4.20;;
52790;SDS011;41253;46.856;-71.574;2022-07-29T14:11:55;6.22;;;4.28;;
52790;SDS011;41253;46.856;-71.574;2022-07-29T14:14:21;4.80;;;4.28;;
52790;SDS011;41253;46.856;-71.574;2022-07-29T14:16:48;4.30;;;3.90;;
52790;SDS011;41253;46.856;-71.574;2022-07-29T14:19:14;5.20;;;3.58;;
52790;SDS011;41253;46.856;-71.574;2022-07-29T14:21:41;6.35;;;3.75;;
52790;SDS011;41253;46.856;-71.574;2022-07-29T14:24:07;5.15;;;3.97;;
52790;SDS011;41253;46.856;-71.574;2022-07-29T14:26:34;5.60;;;3.80;;
52790;SDS011;41253;46.856;-71.574;2022-07-29T14:29:00;4.60;;;3.45;;
52790;SDS011;41253;46.856;-71.574;2022-07-29T14:31:27;3.97;;;3.67;;
52790;SDS011;41253;46.856;-71.574;2022-07-29T14:33:54;4.47;;;3.00;;
52790;SDS011;41253;46.856;-71.574;2022-07-29T14:36:20;3.42;;;3.13;;
52790;SDS011;41253;46.856;-71.574;2022-07-29T14:38:46;6.53;;;2.92;;
52790;SDS011;41253;46.856;-71.574;2022-07-29T14:41:13;3.65;;;2.92;;
52790;SDS011;41253;46.856;-71.574;2022-07-29T14:43:39;6.05;;;2.97;;
52790;SDS011;41253;46.856;-71.574;2022-07-29T14:46:06;5.25;;;3.03;;
52790;SDS011;41253;46.856;-71.574;2022-07-29T14:48:33;3.40;;;2.63;;
52790;SDS011;41253;46.856;-71.574;2022-07-29T14:51:00;4.90;;;3.38;;
52790;SDS011;41253;46.856;-71.574;2022-07-29T14:53:26;3.95;;;3.10;;
52790;SDS011;41253;46.856;-71.574;2022-07-29T14:55:53;2.92;;;2.47;;
52790;SDS011;41253;46.856;-71.574;2022-07-29T14:58:19;3.33;;;2.67;;
52790;SDS011;41253;46.856;-71.574;2022-07-29T15:00:47;3.05;;;2.30;;
52790;SDS011;41253;46.856;-71.574;2022-07-29T15:03:14;3.53;;;2.50;;
52790;SDS011;41253;46.856;-71.574;2022-07-29T15:05:41;2.97;;;2.72;;
52790;SDS011;41253;46.856;-71.574;2022-07-29T15:08:07;3.17;;;2.83;;
52790;SDS011;41253;46.856;-71.574;2022-07-29T15:10:33;4.18;;;3.10;;
52790;SDS011;41253;46.856;-71.574;2022-07-29T15:13:00;3.38;;;2.90;;